Silver Lake, WI

9:33 AM CDT on April 01, 2015 (GMT -0500)
KWITWINL2 | | Change Station
CLOSE
Current Station
Personal Weather Station
Location: Bassett, WI
Elevation: 849 ft
Nearby Weather Stations

Elev 849 ft 42.53 °N, 88.21 °W | Updated 14 minutes ago

Clear
Clear
47.2 °F
Feels Like 47 °F
N
3.0
Wind Variable Wind from ESE
Gusts 5.0 mph

Today
High -- | Low -- °F
--% Chance of Precip.
Yesterday
High -- | Low -- °F
Precip. -- in
6:35 AM 7:18 PM
Waxing Gibbous, 93% visible
Pressure 30.04 in
Visibility 10.0 miles
Clouds Scattered Clouds 11000 ft
Windchill 47 °F
Dew Point 39 °F
Humidity 73%
Rainfall 0.00 in
Snow Depth Not available.
UV 2 out of 12
Pollen 6.70 out of 12
Air Quality Not available.
Flu Activity Not available.
METAR KBUU 011415Z AUTO 12006KT 10SM SCT110 07/02 A3004 RMK AO2 T00740017

More Conditions Fewer Conditions

Pressure 30.04 in
Visibility 10.0 miles
Clouds Scattered Clouds 11000 ft
Windchill 47 °F
Dew Point 39 °F
Humidity 73%
Rainfall 0.00 in
Snow Depth Not available.
UV 2 out of 12
Pollen 6.70 out of 12
Air Quality Not available.
Flu Activity Not available.
METAR KBUU 011415Z AUTO 12006KT 10SM SCT110 07/02 A3004 RMK AO2 T00740017

More Conditions Fewer Conditions

10-Day Weather Forecast

Almanac

Astronomy

Apr. 01, 2015 Rise Set
Actual Time
Civil Twilight
Nautical Twilight
Astronomical Twilight
Moon
Length of Visible Light
Length of Day
Tomorrow will be .
, % of the Moon is Illuminated

Today's Extremes

State Highs State Lows

Community

WunderPhotos

Upload Photos

1,809,963 photos uploaded!

WunderBlogs® & News

Nearby

Air Quality

  Air Quality AQ Index Pollutant
Not available.

Snow Depth

Station Depth Elevation

Earthquake Activity

City Distance Mag. Time & Date
Minimum magnitude displayed is 2.5.

Coastal Water Temperatures

Place Temperature

Stations

Nearby Weather Stations

Station Location Temp. Windchill Dew Point Humidity Wind Precip. Elev Updated Type